sensor_id;sensor_type;location;lat;lon;timestamp;P1;durP1;ratioP1;P2;durP2;ratioP2
9547;SDS011;4812;51.992;8.648;2023-03-24T00:00:26;5.60;;;3.20;;
9547;SDS011;4812;51.992;8.648;2023-03-24T00:02:55;3.80;;;3.33;;
9547;SDS011;4812;51.992;8.648;2023-03-24T00:05:26;4.70;;;2.80;;
9547;SDS011;4812;51.992;8.648;2023-03-24T00:10:44;3.90;;;3.10;;
9547;SDS011;4812;51.992;8.648;2023-03-24T00:13:12;3.63;;;2.60;;
9547;SDS011;4812;51.992;8.648;2023-03-24T00:15:41;4.63;;;2.87;;
9547;SDS011;4812;51.992;8.648;2023-03-24T00:18:10;6.17;;;2.93;;
9547;SDS011;4812;51.992;8.648;2023-03-24T00:23:36;4.43;;;2.77;;
9547;SDS011;4812;51.992;8.648;2023-03-24T00:26:08;4.60;;;2.73;;
9547;SDS011;4812;51.992;8.648;2023-03-24T00:31:29;3.77;;;2.60;;
9547;SDS011;4812;51.992;8.648;2023-03-24T00:33:58;3.43;;;2.80;;
9547;SDS011;4812;51.992;8.648;2023-03-24T00:36:27;2.60;;;2.40;;
9547;SDS011;4812;51.992;8.648;2023-03-24T00:38:55;5.87;;;3.20;;
9547;SDS011;4812;51.992;8.648;2023-03-24T00:41:23;3.67;;;2.60;;
9547;SDS011;4812;51.992;8.648;2023-03-24T00:46:55;4.13;;;2.73;;
9547;SDS011;4812;51.992;8.648;2023-03-24T00:49:24;5.77;;;2.57;;
9547;SDS011;4812;51.992;8.648;2023-03-24T00:52:20;3.77;;;2.30;;
9547;SDS011;4812;51.992;8.648;2023-03-24T00:54:50;3.03;;;2.37;;
9547;SDS011;4812;51.992;8.648;2023-03-24T00:57:20;5.87;;;2.80;;
9547;SDS011;4812;51.992;8.648;2023-03-24T00:59:49;3.93;;;2.60;;
9547;SDS011;4812;51.992;8.648;2023-03-24T01:02:18;3.43;;;2.53;;
9547;SDS011;4812;51.992;8.648;2023-03-24T01:04:50;3.73;;;2.50;;
9547;SDS011;4812;51.992;8.648;2023-03-24T01:10:12;3.40;;;2.30;;
9547;SDS011;4812;51.992;8.648;2023-03-24T01:12:40;5.03;;;2.50;;
9547;SDS011;4812;51.992;8.648;2023-03-24T01:15:10;3.70;;;2.30;;
9547;SDS011;4812;51.992;8.648;2023-03-24T01:17:41;4.20;;;2.73;;
9547;SDS011;4812;51.992;8.648;2023-03-24T01:23:08;2.13;;;1.93;;
9547;SDS011;4812;51.992;8.648;2023-03-24T01:25:37;6.23;;;2.60;;
9547;SDS011;4812;51.992;8.648;2023-03-24T01:28:07;5.10;;;2.40;;
9547;SDS011;4812;51.992;8.648;2023-03-24T01:30:35;4.60;;;2.43;;
9547;SDS011;4812;51.992;8.648;2023-03-24T01:33:02;3.70;;;2.30;;
9547;SDS011;4812;51.992;8.648;2023-03-24T01:35:30;4.47;;;2.10;;
9547;SDS011;4812;51.992;8.648;2023-03-24T01:40:57;2.80;;;2.40;;
9547;SDS011;4812;51.992;8.648;2023-03-24T01:43:26;2.50;;;2.20;;
9547;SDS011;4812;51.992;8.648;2023-03-24T01:46:16;3.33;;;2.90;;
9547;SDS011;4812;51.992;8.648;2023-03-24T01:48:47;2.97;;;2.30;;
9547;SDS011;4812;51.992;8.648;2023-03-24T01:51:18;4.43;;;2.23;;
9547;SDS011;4812;51.992;8.648;2023-03-24T01:53:50;4.00;;;2.20;;
9547;SDS011;4812;51.992;8.648;2023-03-24T01:56:21;3.80;;;2.60;;
9547;SDS011;4812;51.992;8.648;2023-03-24T01:58:51;5.10;;;2.37;;
9547;SDS011;4812;51.992;8.648;2023-03-24T02:01:26;3.57;;;2.30;;
9547;SDS011;4812;51.992;8.648;2023-03-24T02:04:11;2.60;;;2.40;;
9547;SDS011;4812;51.992;8.648;2023-03-24T02:06:41;4.20;;;2.40;;
9547;SDS011;4812;51.992;8.648;2023-03-24T02:12:14;3.23;;;2.50;;
9547;SDS011;4812;51.992;8.648;2023-03-24T02:14:43;3.23;;;2.53;;
9547;SDS011;4812;51.992;8.648;2023-03-24T02:20:28;2.67;;;2.20;;
9547;SDS011;4812;51.992;8.648;2023-03-24T02:23:04;2.87;;;2.40;;
9547;SDS011;4812;51.992;8.648;2023-03-24T02:28:58;3.73;;;2.53;;
9547;SDS011;4812;51.992;8.648;2023-03-24T02:31:36;3.10;;;2.67;;
9547;SDS011;4812;51.992;8.648;2023-03-24T02:40:18;3.17;;;2.60;;
9547;SDS011;4812;51.992;8.648;2023-03-24T02:45:52;3.60;;;2.73;;
9547;SDS011;4812;51.992;8.648;2023-03-24T02:48:27;3.77;;;2.53;;
9547;SDS011;4812;51.992;8.648;2023-03-24T02:51:01;4.17;;;2.80;;
9547;SDS011;4812;51.992;8.648;2023-03-24T02:53:33;3.20;;;2.60;;
9547;SDS011;4812;51.992;8.648;2023-03-24T02:56:22;5.20;;;2.87;;
9547;SDS011;4812;51.992;8.648;2023-03-24T02:59:02;3.67;;;3.00;;
9547;SDS011;4812;51.992;8.648;2023-03-24T03:01:53;3.33;;;2.87;;
9547;SDS011;4812;51.992;8.648;2023-03-24T03:04:45;4.57;;;2.60;;
9547;SDS011;4812;51.992;8.648;2023-03-24T03:07:16;3.13;;;2.40;;
9547;SDS011;4812;51.992;8.648;2023-03-24T03:09:48;6.20;;;2.90;;
9547;SDS011;4812;51.992;8.648;2023-03-24T03:12:21;3.90;;;3.00;;
9547;SDS011;4812;51.992;8.648;2023-03-24T03:14:50;3.40;;;2.80;;
9547;SDS011;4812;51.992;8.648;2023-03-24T03:17:20;4.17;;;3.00;;
9547;SDS011;4812;51.992;8.648;2023-03-24T03:22:38;3.17;;;2.70;;
9547;SDS011;4812;51.992;8.648;2023-03-24T03:25:09;5.77;;;3.30;;
9547;SDS011;4812;51.992;8.648;2023-03-24T03:27:39;5.40;;;3.27;;
9547;SDS011;4812;51.992;8.648;2023-03-24T03:30:11;4.80;;;3.60;;
9547;SDS011;4812;51.992;8.648;2023-03-24T03:32:41;3.77;;;3.07;;
9547;SDS011;4812;51.992;8.648;2023-03-24T03:35:21;3.73;;;3.20;;
9547;SDS011;4812;51.992;8.648;2023-03-24T03:40:49;4.63;;;2.70;;
9547;SDS011;4812;51.992;8.648;2023-03-24T03:43:22;3.43;;;2.93;;
9547;SDS011;4812;51.992;8.648;2023-03-24T03:45:51;4.10;;;3.50;;
9547;SDS011;4812;51.992;8.648;2023-03-24T03:48:27;4.07;;;3.20;;
9547;SDS011;4812;51.992;8.648;2023-03-24T03:53:55;3.70;;;3.30;;
9547;SDS011;4812;51.992;8.648;2023-03-24T03:56:25;4.83;;;3.40;;
9547;SDS011;4812;51.992;8.648;2023-03-24T03:59:25;4.23;;;3.47;;
9547;SDS011;4812;51.992;8.648;2023-03-24T04:01:55;5.77;;;3.27;;
9547;SDS011;4812;51.992;8.648;2023-03-24T04:07:46;3.67;;;2.93;;
9547;SDS011;4812;51.992;8.648;2023-03-24T04:11:04;3.30;;;3.00;;
9547;SDS011;4812;51.992;8.648;2023-03-24T04:14:11;3.87;;;3.13;;
9547;SDS011;4812;51.992;8.648;2023-03-24T04:17:15;5.97;;;3.20;;
9547;SDS011;4812;51.992;8.648;2023-03-24T04:19:51;3.80;;;3.07;;
9547;SDS011;4812;51.992;8.648;2023-03-24T04:22:26;4.17;;;3.40;;
9547;SDS011;4812;51.992;8.648;2023-03-24T04:25:17;4.50;;;3.80;;
9547;SDS011;4812;51.992;8.648;2023-03-24T04:27:49;4.93;;;3.60;;
9547;SDS011;4812;51.992;8.648;2023-03-24T04:33:30;5.07;;;3.10;;
9547;SDS011;4812;51.992;8.648;2023-03-24T04:36:05;5.07;;;3.27;;
9547;SDS011;4812;51.992;8.648;2023-03-24T04:38:53;5.50;;;3.60;;
9547;SDS011;4812;51.992;8.648;2023-03-24T04:44:32;4.20;;;3.33;;
9547;SDS011;4812;51.992;8.648;2023-03-24T04:47:23;4.93;;;3.50;;
9547;SDS011;4812;51.992;8.648;2023-03-24T04:50:08;5.27;;;3.60;;
9547;SDS011;4812;51.992;8.648;2023-03-24T04:52:37;3.93;;;3.43;;
9547;SDS011;4812;51.992;8.648;2023-03-24T04:55:14;4.13;;;3.50;;
9547;SDS011;4812;51.992;8.648;2023-03-24T04:57:54;4.10;;;3.57;;
9547;SDS011;4812;51.992;8.648;2023-03-24T05:03:04;4.27;;;2.83;;
9547;SDS011;4812;51.992;8.648;2023-03-24T05:05:33;3.77;;;3.17;;
9547;SDS011;4812;51.992;8.648;2023-03-24T05:10:31;4.07;;;3.00;;
9547;SDS011;4812;51.992;8.648;2023-03-24T05:15:51;3.57;;;3.27;;
9547;SDS011;4812;51.992;8.648;2023-03-24T05:18:27;3.43;;;2.93;;
9547;SDS011;4812;51.992;8.648;2023-03-24T05:20:57;3.63;;;3.10;;
9547;SDS011;4812;51.992;8.648;2023-03-24T05:26:25;3.37;;;3.07;;
9547;SDS011;4812;51.992;8.648;2023-03-24T05:29:03;6.10;;;3.20;;
9547;SDS011;4812;51.992;8.648;2023-03-24T05:31:32;4.83;;;3.10;;
9547;SDS011;4812;51.992;8.648;2023-03-24T05:34:06;3.90;;;3.50;;
9547;SDS011;4812;51.992;8.648;2023-03-24T05:36:45;4.20;;;3.50;;
9547;SDS011;4812;51.992;8.648;2023-03-24T05:39:16;6.00;;;4.20;;
9547;SDS011;4812;51.992;8.648;2023-03-24T05:41:50;3.77;;;3.37;;
9547;SDS011;4812;51.992;8.648;2023-03-24T05:44:18;4.67;;;3.73;;
9547;SDS011;4812;51.992;8.648;2023-03-24T05:46:58;5.73;;;3.70;;
9547;SDS011;4812;51.992;8.648;2023-03-24T05:49:26;4.27;;;3.87;;
9547;SDS011;4812;51.992;8.648;2023-03-24T05:51:55;6.93;;;3.70;;
9547;SDS011;4812;51.992;8.648;2023-03-24T05:57:06;7.00;;;4.10;;
9547;SDS011;4812;51.992;8.648;2023-03-24T06:02:49;4.17;;;3.77;;
9547;SDS011;4812;51.992;8.648;2023-03-24T06:05:23;5.27;;;3.90;;
9547;SDS011;4812;51.992;8.648;2023-03-24T06:07:52;4.50;;;3.57;;
9547;SDS011;4812;51.992;8.648;2023-03-24T06:13:28;3.73;;;3.33;;
9547;SDS011;4812;51.992;8.648;2023-03-24T06:15:56;5.97;;;3.80;;
9547;SDS011;4812;51.992;8.648;2023-03-24T06:18:34;4.87;;;3.90;;
9547;SDS011;4812;51.992;8.648;2023-03-24T06:21:11;4.37;;;3.53;;
9547;SDS011;4812;51.992;8.648;2023-03-24T06:23:42;4.70;;;3.90;;
9547;SDS011;4812;51.992;8.648;2023-03-24T06:26:13;4.47;;;4.03;;
9547;SDS011;4812;51.992;8.648;2023-03-24T06:28:47;4.00;;;3.60;;
9547;SDS011;4812;51.992;8.648;2023-03-24T06:31:17;4.10;;;3.70;;
9547;SDS011;4812;51.992;8.648;2023-03-24T06:36:43;4.27;;;3.87;;
9547;SDS011;4812;51.992;8.648;2023-03-24T06:39:12;4.77;;;4.37;;
9547;SDS011;4812;51.992;8.648;2023-03-24T06:41:40;4.93;;;4.30;;
9547;SDS011;4812;51.992;8.648;2023-03-24T06:44:08;4.37;;;3.97;;
9547;SDS011;4812;51.992;8.648;2023-03-24T06:46:36;4.10;;;3.70;;
9547;SDS011;4812;51.992;8.648;2023-03-24T06:52:07;4.63;;;2.90;;
9547;SDS011;4812;51.992;8.648;2023-03-24T06:54:39;4.73;;;2.70;;
9547;SDS011;4812;51.992;8.648;2023-03-24T06:57:39;3.63;;;2.50;;
9547;SDS011;4812;51.992;8.648;2023-03-24T07:00:27;3.33;;;3.10;;
9547;SDS011;4812;51.992;8.648;2023-03-24T07:03:13;3.10;;;2.80;;
9547;SDS011;4812;51.992;8.648;2023-03-24T07:05:53;3.30;;;3.10;;
9547;SDS011;4812;51.992;8.648;2023-03-24T07:08:22;3.73;;;2.83;;
9547;SDS011;4812;51.992;8.648;2023-03-24T07:11:05;3.10;;;2.90;;
9547;SDS011;4812;51.992;8.648;2023-03-24T07:16:19;3.10;;;2.90;;
9547;SDS011;4812;51.992;8.648;2023-03-24T07:18:56;3.50;;;3.20;;
9547;SDS011;4812;51.992;8.648;2023-03-24T07:21:24;3.50;;;2.83;;
9547;SDS011;4812;51.992;8.648;2023-03-24T07:23:52;3.60;;;3.10;;
9547;SDS011;4812;51.992;8.648;2023-03-24T07:26:52;3.60;;;2.80;;
9547;SDS011;4812;51.992;8.648;2023-03-24T07:29:22;4.73;;;3.50;;
9547;SDS011;4812;51.992;8.648;2023-03-24T07:32:02;4.13;;;3.50;;
9547;SDS011;4812;51.992;8.648;2023-03-24T07:34:30;4.53;;;3.97;;
9547;SDS011;4812;51.992;8.648;2023-03-24T07:36:58;4.43;;;4.10;;
9547;SDS011;4812;51.992;8.648;2023-03-24T07:39:27;4.67;;;4.20;;
9547;SDS011;4812;51.992;8.648;2023-03-24T07:41:57;6.57;;;4.30;;
9547;SDS011;4812;51.992;8.648;2023-03-24T07:44:37;4.73;;;4.00;;
9547;SDS011;4812;51.992;8.648;2023-03-24T07:47:05;4.87;;;4.10;;
9547;SDS011;4812;51.992;8.648;2023-03-24T07:49:32;7.60;;;4.37;;
9547;SDS011;4812;51.992;8.648;2023-03-24T07:52:04;4.27;;;3.90;;
9547;SDS011;4812;51.992;8.648;2023-03-24T07:57:52;5.40;;;4.90;;
9547;SDS011;4812;51.992;8.648;2023-03-24T08:00:22;5.27;;;4.63;;
9547;SDS011;4812;51.992;8.648;2023-03-24T08:03:06;6.53;;;4.40;;
9547;SDS011;4812;51.992;8.648;2023-03-24T08:09:12;6.60;;;4.67;;
9547;SDS011;4812;51.992;8.648;2023-03-24T08:11:39;6.13;;;4.83;;
9547;SDS011;4812;51.992;8.648;2023-03-24T08:14:08;6.10;;;4.10;;
9547;SDS011;4812;51.992;8.648;2023-03-24T08:16:36;7.37;;;4.87;;
9547;SDS011;4812;51.992;8.648;2023-03-24T08:19:04;5.13;;;4.50;;
9547;SDS011;4812;51.992;8.648;2023-03-24T08:21:32;7.80;;;4.90;;
9547;SDS011;4812;51.992;8.648;2023-03-24T08:24:31;5.83;;;4.40;;
9547;SDS011;4812;51.992;8.648;2023-03-24T08:26:58;9.67;;;4.43;;
9547;SDS011;4812;51.992;8.648;2023-03-24T08:29:29;5.90;;;4.37;;
9547;SDS011;4812;51.992;8.648;2023-03-24T08:31:56;8.27;;;4.60;;
9547;SDS011;4812;51.992;8.648;2023-03-24T08:34:24;7.27;;;4.63;;
9547;SDS011;4812;51.992;8.648;2023-03-24T08:36:51;5.23;;;4.33;;
9547;SDS011;4812;51.992;8.648;2023-03-24T08:39:19;6.67;;;4.50;;
9547;SDS011;4812;51.992;8.648;2023-03-24T08:41:46;7.20;;;4.60;;
9547;SDS011;4812;51.992;8.648;2023-03-24T08:44:15;8.73;;;4.83;;
9547;SDS011;4812;51.992;8.648;2023-03-24T08:46:44;10.27;;;5.30;;
9547;SDS011;4812;51.992;8.648;2023-03-24T08:52:10;11.90;;;5.63;;
9547;SDS011;4812;51.992;8.648;2023-03-24T08:54:37;11.63;;;5.47;;
9547;SDS011;4812;51.992;8.648;2023-03-24T08:57:05;6.80;;;5.03;;
9547;SDS011;4812;51.992;8.648;2023-03-24T08:59:32;6.87;;;4.60;;
9547;SDS011;4812;51.992;8.648;2023-03-24T09:05:04;7.93;;;4.80;;
9547;SDS011;4812;51.992;8.648;2023-03-24T09:10:38;10.10;;;4.63;;
9547;SDS011;4812;51.992;8.648;2023-03-24T09:13:05;9.47;;;5.10;;
9547;SDS011;4812;51.992;8.648;2023-03-24T09:15:33;8.03;;;4.80;;
9547;SDS011;4812;51.992;8.648;2023-03-24T09:18:01;5.87;;;4.90;;
9547;SDS011;4812;51.992;8.648;2023-03-24T09:20:30;8.10;;;5.20;;
9547;SDS011;4812;51.992;8.648;2023-03-24T09:22:57;8.07;;;5.27;;
9547;SDS011;4812;51.992;8.648;2023-03-24T09:25:25;9.13;;;4.77;;
9547;SDS011;4812;51.992;8.648;2023-03-24T09:27:52;5.07;;;4.37;;
9547;SDS011;4812;51.992;8.648;2023-03-24T09:33:18;7.50;;;4.33;;
9547;SDS011;4812;51.992;8.648;2023-03-24T09:35:48;6.87;;;3.90;;
9547;SDS011;4812;51.992;8.648;2023-03-24T09:41:22;6.07;;;3.20;;
9547;SDS011;4812;51.992;8.648;2023-03-24T09:43:53;5.73;;;3.90;;
9547;SDS011;4812;51.992;8.648;2023-03-24T09:46:25;6.53;;;3.67;;
9547;SDS011;4812;51.992;8.648;2023-03-24T09:48:55;5.70;;;3.10;;
9547;SDS011;4812;51.992;8.648;2023-03-24T09:51:26;5.37;;;3.40;;
9547;SDS011;4812;51.992;8.648;2023-03-24T09:53:56;9.40;;;3.60;;
9547;SDS011;4812;51.992;8.648;2023-03-24T09:56:27;5.80;;;3.20;;
9547;SDS011;4812;51.992;8.648;2023-03-24T09:59:00;5.63;;;3.90;;
9547;SDS011;4812;51.992;8.648;2023-03-24T10:01:30;6.40;;;3.40;;
9547;SDS011;4812;51.992;8.648;2023-03-24T10:03:58;6.47;;;3.20;;
9547;SDS011;4812;51.992;8.648;2023-03-24T10:06:28;6.27;;;3.30;;
9547;SDS011;4812;51.992;8.648;2023-03-24T10:09:02;7.27;;;3.67;;
9547;SDS011;4812;51.992;8.648;2023-03-24T10:11:36;4.93;;;3.40;;
9547;SDS011;4812;51.992;8.648;2023-03-24T10:14:11;5.30;;;3.77;;
9547;SDS011;4812;51.992;8.648;2023-03-24T10:16:47;5.67;;;3.77;;
9547;SDS011;4812;51.992;8.648;2023-03-24T10:19:19;7.83;;;3.50;;
9547;SDS011;4812;51.992;8.648;2023-03-24T10:21:53;4.27;;;3.00;;
9547;SDS011;4812;51.992;8.648;2023-03-24T10:24:26;6.90;;;3.13;;
9547;SDS011;4812;51.992;8.648;2023-03-24T10:26:58;8.13;;;3.33;;
9547;SDS011;4812;51.992;8.648;2023-03-24T10:32:24;5.40;;;3.20;;
9547;SDS011;4812;51.992;8.648;2023-03-24T10:34:56;7.63;;;4.07;;
9547;SDS011;4812;51.992;8.648;2023-03-24T10:37:26;5.40;;;3.60;;
9547;SDS011;4812;51.992;8.648;2023-03-24T10:39:55;5.77;;;3.37;;
9547;SDS011;4812;51.992;8.648;2023-03-24T10:42:23;7.70;;;3.40;;
9547;SDS011;4812;51.992;8.648;2023-03-24T10:44:52;6.07;;;3.33;;
9547;SDS011;4812;51.992;8.648;2023-03-24T10:47:21;9.47;;;3.17;;
9547;SDS011;4812;51.992;8.648;2023-03-24T10:49:52;3.50;;;2.93;;
9547;SDS011;4812;51.992;8.648;2023-03-24T10:52:20;6.83;;;2.93;;
9547;SDS011;4812;51.992;8.648;2023-03-24T10:57:39;5.70;;;3.10;;
9547;SDS011;4812;51.992;8.648;2023-03-24T15:29:41;11.37;;;10.70;;
9547;SDS011;4812;51.992;8.648;2023-03-24T15:32:14;7.20;;;6.73;;
9547;SDS011;4812;51.992;8.648;2023-03-24T15:34:45;5.80;;;5.30;;
9547;SDS011;4812;51.992;8.648;2023-03-24T15:37:19;6.33;;;4.30;;
9547;SDS011;4812;51.992;8.648;2023-03-24T15:39:48;3.63;;;2.70;;
9547;SDS011;4812;51.992;8.648;2023-03-24T15:42:19;3.40;;;2.57;;
9547;SDS011;4812;51.992;8.648;2023-03-24T15:44:48;3.03;;;2.40;;
9547;SDS011;4812;51.992;8.648;2023-03-24T15:47:19;3.80;;;2.50;;
9547;SDS011;4812;51.992;8.648;2023-03-24T15:49:49;2.70;;;2.50;;
9547;SDS011;4812;51.992;8.648;2023-03-24T15:52:25;2.40;;;2.30;;
9547;SDS011;4812;51.992;8.648;2023-03-24T15:54:55;3.67;;;2.40;;
9547;SDS011;4812;51.992;8.648;2023-03-24T15:57:24;2.43;;;2.30;;
9547;SDS011;4812;51.992;8.648;2023-03-24T15:59:55;2.17;;;2.07;;
9547;SDS011;4812;51.992;8.648;2023-03-24T16:05:27;3.20;;;2.30;;
9547;SDS011;4812;51.992;8.648;2023-03-24T16:07:56;4.73;;;2.73;;
9547;SDS011;4812;51.992;8.648;2023-03-24T16:10:29;6.00;;;3.40;;
9547;SDS011;4812;51.992;8.648;2023-03-24T16:13:03;3.37;;;3.00;;
9547;SDS011;4812;51.992;8.648;2023-03-24T16:15:39;4.13;;;3.00;;
9547;SDS011;4812;51.992;8.648;2023-03-24T16:18:10;3.40;;;3.20;;
9547;SDS011;4812;51.992;8.648;2023-03-24T16:23:39;3.50;;;3.30;;
9547;SDS011;4812;51.992;8.648;2023-03-24T16:26:09;3.30;;;3.10;;
9547;SDS011;4812;51.992;8.648;2023-03-24T16:28:38;4.37;;;3.40;;
9547;SDS011;4812;51.992;8.648;2023-03-24T16:31:06;3.73;;;3.40;;
9547;SDS011;4812;51.992;8.648;2023-03-24T16:36:31;3.40;;;3.20;;
9547;SDS011;4812;51.992;8.648;2023-03-24T16:42:03;4.80;;;3.50;;
9547;SDS011;4812;51.992;8.648;2023-03-24T16:44:31;3.63;;;3.30;;
9547;SDS011;4812;51.992;8.648;2023-03-24T16:46:58;4.30;;;4.00;;
9547;SDS011;4812;51.992;8.648;2023-03-24T16:49:26;4.40;;;4.10;;
9547;SDS011;4812;51.992;8.648;2023-03-24T16:51:54;4.23;;;3.43;;
9547;SDS011;4812;51.992;8.648;2023-03-24T16:54:21;4.17;;;3.30;;
9547;SDS011;4812;51.992;8.648;2023-03-24T16:56:49;4.90;;;3.03;;
9547;SDS011;4812;51.992;8.648;2023-03-24T16:59:18;3.03;;;2.77;;
9547;SDS011;4812;51.992;8.648;2023-03-24T17:04:34;3.13;;;2.93;;
9547;SDS011;4812;51.992;8.648;2023-03-24T17:07:01;2.90;;;2.70;;
9547;SDS011;4812;51.992;8.648;2023-03-24T17:09:29;4.60;;;3.03;;
9547;SDS011;4812;51.992;8.648;2023-03-24T17:11:57;6.00;;;3.20;;
9547;SDS011;4812;51.992;8.648;2023-03-24T17:14:28;3.73;;;3.40;;
9547;SDS011;4812;51.992;8.648;2023-03-24T17:16:56;5.07;;;3.47;;
9547;SDS011;4812;51.992;8.648;2023-03-24T17:22:13;4.93;;;3.50;;
9547;SDS011;4812;51.992;8.648;2023-03-24T17:24:44;4.83;;;2.87;;
9547;SDS011;4812;51.992;8.648;2023-03-24T17:27:13;5.57;;;3.00;;
9547;SDS011;4812;51.992;8.648;2023-03-24T17:29:45;6.20;;;3.20;;
9547;SDS011;4812;51.992;8.648;2023-03-24T17:32:12;4.93;;;3.07;;
9547;SDS011;4812;51.992;8.648;2023-03-24T17:37:53;3.73;;;3.27;;
9547;SDS011;4812;51.992;8.648;2023-03-24T17:40:20;5.63;;;3.40;;
9547;SDS011;4812;51.992;8.648;2023-03-24T17:42:48;3.90;;;2.97;;
9547;SDS011;4812;51.992;8.648;2023-03-24T17:45:17;5.23;;;3.00;;
9547;SDS011;4812;51.992;8.648;2023-03-24T17:47:45;3.47;;;2.97;;
9547;SDS011;4812;51.992;8.648;2023-03-24T17:50:13;4.50;;;3.00;;
9547;SDS011;4812;51.992;8.648;2023-03-24T17:52:42;4.60;;;3.13;;
9547;SDS011;4812;51.992;8.648;2023-03-24T17:55:10;4.03;;;2.90;;
9547;SDS011;4812;51.992;8.648;2023-03-24T18:00:38;3.87;;;3.50;;
9547;SDS011;4812;51.992;8.648;2023-03-24T18:03:06;6.93;;;3.87;;
9547;SDS011;4812;51.992;8.648;2023-03-24T18:05:34;5.83;;;3.67;;
9547;SDS011;4812;51.992;8.648;2023-03-24T18:08:01;6.10;;;3.73;;
9547;SDS011;4812;51.992;8.648;2023-03-24T18:10:29;4.57;;;3.57;;
9547;SDS011;4812;51.992;8.648;2023-03-24T18:12:56;5.27;;;3.47;;
9547;SDS011;4812;51.992;8.648;2023-03-24T18:18:16;6.80;;;3.27;;
9547;SDS011;4812;51.992;8.648;2023-03-24T18:20:44;4.23;;;3.03;;
9547;SDS011;4812;51.992;8.648;2023-03-24T18:23:11;8.57;;;3.57;;
9547;SDS011;4812;51.992;8.648;2023-03-24T18:25:41;4.73;;;3.07;;
9547;SDS011;4812;51.992;8.648;2023-03-24T18:28:08;7.80;;;3.53;;
9547;SDS011;4812;51.992;8.648;2023-03-24T18:30:36;4.40;;;2.80;;
9547;SDS011;4812;51.992;8.648;2023-03-24T18:33:04;6.33;;;3.57;;
9547;SDS011;4812;51.992;8.648;2023-03-24T18:35:34;4.67;;;3.50;;
9547;SDS011;4812;51.992;8.648;2023-03-24T18:38:01;6.40;;;3.43;;
9547;SDS011;4812;51.992;8.648;2023-03-24T18:40:29;3.53;;;3.03;;
9547;SDS011;4812;51.992;8.648;2023-03-24T18:45:45;3.40;;;2.80;;
9547;SDS011;4812;51.992;8.648;2023-03-24T18:48:13;5.90;;;3.50;;
9547;SDS011;4812;51.992;8.648;2023-03-24T18:50:42;4.97;;;2.87;;
9547;SDS011;4812;51.992;8.648;2023-03-24T18:53:09;4.17;;;3.43;;
9547;SDS011;4812;51.992;8.648;2023-03-24T18:58:37;4.63;;;3.43;;
9547;SDS011;4812;51.992;8.648;2023-03-24T19:01:05;8.00;;;3.80;;
9547;SDS011;4812;51.992;8.648;2023-03-24T19:03:35;5.20;;;3.43;;
9547;SDS011;4812;51.992;8.648;2023-03-24T19:06:05;7.67;;;3.30;;
9547;SDS011;4812;51.992;8.648;2023-03-24T19:08:35;8.87;;;3.87;;
9547;SDS011;4812;51.992;8.648;2023-03-24T19:11:06;7.03;;;4.20;;
9547;SDS011;4812;51.992;8.648;2023-03-24T19:13:33;6.33;;;4.10;;
9547;SDS011;4812;51.992;8.648;2023-03-24T19:16:01;7.20;;;3.80;;
9547;SDS011;4812;51.992;8.648;2023-03-24T19:18:29;4.20;;;3.70;;
9547;SDS011;4812;51.992;8.648;2023-03-24T19:23:46;5.27;;;3.40;;
9547;SDS011;4812;51.992;8.648;2023-03-24T19:26:17;6.03;;;3.23;;
9547;SDS011;4812;51.992;8.648;2023-03-24T19:28:45;4.07;;;3.10;;
9547;SDS011;4812;51.992;8.648;2023-03-24T19:31:14;4.47;;;3.50;;
9547;SDS011;4812;51.992;8.648;2023-03-24T19:33:43;6.00;;;3.27;;
9547;SDS011;4812;51.992;8.648;2023-03-24T19:36:11;6.23;;;3.30;;
9547;SDS011;4812;51.992;8.648;2023-03-24T19:38:40;6.47;;;3.67;;
9547;SDS011;4812;51.992;8.648;2023-03-24T19:41:10;6.53;;;3.20;;
9547;SDS011;4812;51.992;8.648;2023-03-24T19:43:39;4.50;;;2.83;;
9547;SDS011;4812;51.992;8.648;2023-03-24T19:46:06;5.73;;;3.07;;
9547;SDS011;4812;51.992;8.648;2023-03-24T19:48:34;3.87;;;2.50;;
9547;SDS011;4812;51.992;8.648;2023-03-24T19:51:02;3.97;;;2.53;;
9547;SDS011;4812;51.992;8.648;2023-03-24T19:56:19;5.70;;;2.60;;
9547;SDS011;4812;51.992;8.648;2023-03-24T19:58:47;4.37;;;3.33;;
9547;SDS011;4812;51.992;8.648;2023-03-24T20:01:14;4.47;;;2.83;;
9547;SDS011;4812;51.992;8.648;2023-03-24T20:03:42;3.83;;;2.90;;
9547;SDS011;4812;51.992;8.648;2023-03-24T20:09:17;5.27;;;2.73;;
9547;SDS011;4812;51.992;8.648;2023-03-24T20:14:44;4.20;;;2.60;;
9547;SDS011;4812;51.992;8.648;2023-03-24T20:17:14;8.40;;;2.67;;
9547;SDS011;4812;51.992;8.648;2023-03-24T20:19:43;2.67;;;2.10;;
9547;SDS011;4812;51.992;8.648;2023-03-24T20:22:10;3.10;;;2.57;;
9547;SDS011;4812;51.992;8.648;2023-03-24T20:24:38;2.63;;;2.13;;
9547;SDS011;4812;51.992;8.648;2023-03-24T20:27:05;3.80;;;2.30;;
9547;SDS011;4812;51.992;8.648;2023-03-24T20:29:33;6.60;;;2.70;;
9547;SDS011;4812;51.992;8.648;2023-03-24T20:32:03;2.47;;;2.20;;
9547;SDS011;4812;51.992;8.648;2023-03-24T20:37:19;4.93;;;2.60;;
9547;SDS011;4812;51.992;8.648;2023-03-24T20:39:46;2.80;;;2.60;;
9547;SDS011;4812;51.992;8.648;2023-03-24T20:45:12;5.63;;;3.13;;
9547;SDS011;4812;51.992;8.648;2023-03-24T20:47:41;6.93;;;2.80;;
9547;SDS011;4812;51.992;8.648;2023-03-24T20:52:42;4.40;;;2.73;;
9547;SDS011;4812;51.992;8.648;2023-03-24T20:58:05;5.00;;;2.83;;
9547;SDS011;4812;51.992;8.648;2023-03-24T21:00:35;5.17;;;3.00;;
9547;SDS011;4812;51.992;8.648;2023-03-24T21:03:08;3.70;;;2.30;;
9547;SDS011;4812;51.992;8.648;2023-03-24T21:08:39;6.63;;;2.40;;
9547;SDS011;4812;51.992;8.648;2023-03-24T21:11:10;3.93;;;2.60;;
9547;SDS011;4812;51.992;8.648;2023-03-24T21:13:37;3.10;;;2.67;;
9547;SDS011;4812;51.992;8.648;2023-03-24T21:16:05;8.17;;;2.50;;
9547;SDS011;4812;51.992;8.648;2023-03-24T21:18:35;4.90;;;2.90;;
9547;SDS011;4812;51.992;8.648;2023-03-24T21:21:04;5.47;;;2.50;;
9547;SDS011;4812;51.992;8.648;2023-03-24T21:23:32;2.90;;;2.63;;
9547;SDS011;4812;51.992;8.648;2023-03-24T21:26:04;3.03;;;2.63;;
9547;SDS011;4812;51.992;8.648;2023-03-24T21:28:33;2.30;;;1.80;;
9547;SDS011;4812;51.992;8.648;2023-03-24T21:31:05;6.77;;;2.30;;
9547;SDS011;4812;51.992;8.648;2023-03-24T21:33:35;3.77;;;2.00;;
9547;SDS011;4812;51.992;8.648;2023-03-24T21:36:05;6.03;;;2.20;;
9547;SDS011;4812;51.992;8.648;2023-03-24T21:38:34;4.90;;;2.23;;
9547;SDS011;4812;51.992;8.648;2023-03-24T21:41:02;2.97;;;2.37;;
9547;SDS011;4812;51.992;8.648;2023-03-24T21:43:30;4.77;;;2.23;;
9547;SDS011;4812;51.992;8.648;2023-03-24T21:45:59;5.27;;;2.07;;
9547;SDS011;4812;51.992;8.648;2023-03-24T21:48:29;5.93;;;2.20;;
9547;SDS011;4812;51.992;8.648;2023-03-24T21:50:59;3.57;;;2.20;;
9547;SDS011;4812;51.992;8.648;2023-03-24T21:53:57;5.63;;;2.20;;
9547;SDS011;4812;51.992;8.648;2023-03-24T21:56:28;3.17;;;1.80;;
9547;SDS011;4812;51.992;8.648;2023-03-24T21:58:57;6.97;;;2.43;;
9547;SDS011;4812;51.992;8.648;2023-03-24T22:01:24;7.90;;;2.23;;
9547;SDS011;4812;51.992;8.648;2023-03-24T22:03:52;2.63;;;2.20;;
9547;SDS011;4812;51.992;8.648;2023-03-24T22:06:22;3.40;;;2.43;;
9547;SDS011;4812;51.992;8.648;2023-03-24T22:11:43;2.40;;;2.20;;
9547;SDS011;4812;51.992;8.648;2023-03-24T22:14:11;2.30;;;2.10;;
9547;SDS011;4812;51.992;8.648;2023-03-24T22:16:40;4.40;;;2.20;;
9547;SDS011;4812;51.992;8.648;2023-03-24T22:19:07;3.43;;;2.50;;
9547;SDS011;4812;51.992;8.648;2023-03-24T22:24:25;3.83;;;2.00;;
9547;SDS011;4812;51.992;8.648;2023-03-24T22:26:55;4.83;;;2.23;;
9547;SDS011;4812;51.992;8.648;2023-03-24T22:29:24;5.30;;;2.33;;
9547;SDS011;4812;51.992;8.648;2023-03-24T22:31:53;3.37;;;2.10;;
9547;SDS011;4812;51.992;8.648;2023-03-24T22:37:10;2.93;;;2.00;;
9547;SDS011;4812;51.992;8.648;2023-03-24T22:39:39;4.77;;;1.90;;
9547;SDS011;4812;51.992;8.648;2023-03-24T22:42:07;3.03;;;2.10;;
9547;SDS011;4812;51.992;8.648;2023-03-24T22:44:34;2.70;;;2.10;;
9547;SDS011;4812;51.992;8.648;2023-03-24T22:47:02;4.40;;;2.10;;
9547;SDS011;4812;51.992;8.648;2023-03-24T22:49:30;4.77;;;2.07;;
9547;SDS011;4812;51.992;8.648;2023-03-24T22:51:58;7.87;;;2.73;;
9547;SDS011;4812;51.992;8.648;2023-03-24T22:57:26;4.20;;;2.27;;
9547;SDS011;4812;51.992;8.648;2023-03-24T22:59:54;2.47;;;2.20;;
9547;SDS011;4812;51.992;8.648;2023-03-24T23:02:21;2.10;;;1.90;;
9547;SDS011;4812;51.992;8.648;2023-03-24T23:04:50;3.70;;;2.50;;
9547;SDS011;4812;51.992;8.648;2023-03-24T23:07:20;3.77;;;2.40;;
9547;SDS011;4812;51.992;8.648;2023-03-24T23:09:48;6.90;;;2.50;;
9547;SDS011;4812;51.992;8.648;2023-03-24T23:12:15;3.40;;;2.30;;